Time;durP1;ratioP1;P1;durP2;ratioP2;P2;SDS_P1;SDS_P2;PMS_P1;PMS_P2;Temp;Humidity;BMP_temperature;BMP_pressure;BME280_temperature;BME280_humidity;BME280_pressure;Samples;Min_cycle;Max_cycle;Signal;HPM_P1;HPM_P2
2023/07/14 00:01:32;;;;;;;4.55;2.90;;;17.20;99.90;;;;;;4997153;28;20057;-75
2023/07/14 00:04:27;;;;;;;5.78;2.65;;;17.20;99.90;;;;;;4983161;28;20083;-75
2023/07/14 00:07:19;;;;;;;2.90;2.17;;;17.20;99.90;;;;;;5001196;28;20041;-75
2023/07/14 00:10:31;;;;;;;5.07;2.53;;;17.20;99.90;;;;;;4992174;28;20123;-75
2023/07/14 00:13:17;;;;;;;6.00;2.70;;;17.20;99.90;;;;;;5012081;28;20041;-75
2023/07/14 00:16:05;;;;;;;6.72;2.95;;;17.20;99.90;;;;;;4977674;28;20121;-75
2023/07/14 00:18:51;;;;;;;5.90;2.50;;;17.10;99.90;;;;;;5010003;28;20034;-75
2023/07/14 00:21:37;;;;;;;6.28;2.50;;;17.20;99.90;;;;;;5004259;28;20056;-75
2023/07/14 00:24:23;;;;;;;4.28;2.40;;;17.10;99.90;;;;;;5009591;28;20049;-75
2023/07/14 00:27:17;;;;;;;5.18;2.58;;;17.10;99.90;;;;;;4997155;28;20049;-75
2023/07/14 00:30:20;;;;;;;6.20;2.75;;;17.10;99.90;;;;;;4981570;28;20045;-75
2023/07/14 00:33:14;;;;;;;5.32;2.60;;;17.10;99.90;;;;;;5008928;28;20045;-74
2023/07/14 00:36:00;;;;;;;5.10;3.03;;;17.00;99.90;;;;;;4988308;28;20038;-75
2023/07/14 00:38:46;;;;;;;7.00;2.70;;;17.00;99.90;;;;;;4982067;28;20041;-75
2023/07/14 00:41:32;;;;;;;6.18;2.70;;;17.00;99.90;;;;;;5006120;28;20054;-75
2023/07/14 00:44:18;;;;;;;7.75;3.25;;;16.90;99.90;;;;;;4986113;28;20045;-75
2023/07/14 00:47:26;;;;;;;5.85;2.83;;;16.90;99.90;;;;;;5004916;28;20375;-75
2023/07/14 00:50:17;;;;;;;5.47;2.75;;;16.90;99.90;;;;;;4993631;28;20080;-75
2023/07/14 00:53:06;;;;;;;4.75;2.90;;;16.90;99.90;;;;;;4997669;28;20029;-75
2023/07/14 00:56:03;;;;;;;6.25;2.75;;;16.80;99.90;;;;;;4998515;28;20536;-75
2023/07/14 00:58:49;;;;;;;8.07;2.70;;;16.80;99.90;;;;;;5003711;28;20026;-75
2023/07/14 01:01:35;;;;;;;5.95;3.05;;;16.70;99.90;;;;;;4976534;28;20148;-75
2023/07/14 01:04:21;;;;;;;5.22;2.67;;;16.80;99.90;;;;;;5005099;28;20081;-75
2023/07/14 01:07:07;;;;;;;7.20;2.70;;;16.70;99.90;;;;;;4993748;28;20042;-75
2023/07/14 01:09:54;;;;;;;5.00;2.50;;;16.70;99.90;;;;;;4978474;28;20077;-75
2023/07/14 01:12:41;;;;;;;4.57;2.33;;;16.70;99.90;;;;;;4991986;28;20384;-75
2023/07/14 01:15:28;;;;;;;6.70;2.97;;;16.70;99.90;;;;;;5006117;28;20034;-75
2023/07/14 01:18:14;;;;;;;4.40;2.85;;;16.70;99.90;;;;;;4977885;28;20038;-75
2023/07/14 01:21:00;;;;;;;4.38;2.50;;;16.60;99.90;;;;;;4975600;28;20367;-75
2023/07/14 01:23:55;;;;;;;5.47;2.70;;;16.60;99.90;;;;;;4998026;28;20038;-75
2023/07/14 01:26:55;;;;;;;3.83;2.70;;;16.60;99.90;;;;;;4996736;28;20049;-75
2023/07/14 01:29:43;;;;;;;4.90;2.83;;;16.60;99.90;;;;;;4976729;28;20034;-75
2023/07/14 01:32:37;;;;;;;4.85;2.58;;;16.50;99.90;;;;;;5002314;28;20038;-76
2023/07/14 01:35:36;;;;;;;6.50;3.20;;;16.50;99.90;;;;;;4999382;28;20092;-75
2023/07/14 01:38:22;;;;;;;5.72;3.20;;;16.40;99.90;;;;;;4989083;28;20038;-75
2023/07/14 01:41:08;;;;;;;5.55;2.65;;;16.40;99.90;;;;;;4984694;28;20037;-75
2023/07/14 01:44:03;;;;;;;5.43;2.95;;;16.30;99.90;;;;;;4999683;28;20135;-75
2023/07/14 01:46:49;;;;;;;5.32;2.72;;;16.30;99.90;;;;;;4992321;28;20038;-74
2023/07/14 01:49:38;;;;;;;4.13;2.70;;;16.20;99.90;;;;;;4994710;28;20038;-75
2023/07/14 01:52:27;;;;;;;7.40;2.83;;;16.20;99.90;;;;;;4997919;28;20046;-75
2023/07/14 01:55:14;;;;;;;6.65;2.83;;;16.20;99.90;;;;;;5002162;28;20052;-75
2023/07/14 01:58:04;;;;;;;5.23;2.90;;;16.10;99.90;;;;;;4987353;28;20533;-75
2023/07/14 02:00:50;;;;;;;6.10;2.80;;;16.10;99.90;;;;;;4991843;28;20042;-76
2023/07/14 02:03:41;;;;;;;5.65;2.70;;;16.10;99.90;;;;;;5002170;28;20042;-75
2023/07/14 02:06:27;;;;;;;5.35;3.00;;;16.10;99.90;;;;;;4986030;28;20051;-75
2023/07/14 02:09:19;;;;;;;4.15;2.80;;;16.10;99.90;;;;;;5004265;28;20045;-75
2023/07/14 02:12:05;;;;;;;4.97;3.00;;;16.10;99.90;;;;;;5011556;28;20549;-75
2023/07/14 02:15:06;;;;;;;4.63;3.08;;;16.10;99.90;;;;;;4977334;28;20157;-75
2023/07/14 02:17:53;;;;;;;5.20;3.00;;;16.00;99.90;;;;;;5013138;28;20037;-74
2023/07/14 02:20:39;;;;;;;6.05;3.20;;;16.00;99.90;;;;;;5010797;28;20041;-75
2023/07/14 02:23:26;;;;;;;3.90;2.60;;;16.00;99.90;;;;;;4986066;28;20083;-75
2023/07/14 02:26:15;;;;;;;4.93;2.95;;;15.90;99.90;;;;;;5019880;28;20119;-75
2023/07/14 02:29:01;;;;;;;4.90;2.97;;;15.90;99.90;;;;;;5013857;28;20088;-75
2023/07/14 02:32:02;;;;;;;5.18;3.15;;;15.90;99.90;;;;;;4984302;28;20462;-74
2023/07/14 02:34:55;;;;;;;5.22;2.92;;;15.80;99.90;;;;;;4987972;28;20045;-75
2023/07/14 02:38:06;;;;;;;5.28;3.40;;;15.80;99.90;;;;;;4990285;28;20470;-74
2023/07/14 02:41:00;;;;;;;5.97;3.10;;;15.70;99.90;;;;;;5016961;28;20055;-74
2023/07/14 02:44:14;;;;;;;9.32;3.42;;;15.70;99.90;;;;;;4981742;28;20049;-74
2023/07/14 02:47:08;;;;;;;4.57;3.08;;;15.70;99.90;;;;;;4999657;28;20037;-75
2023/07/14 02:49:54;;;;;;;6.82;3.28;;;15.60;99.90;;;;;;5005533;28;20041;-75
2023/07/14 02:52:40;;;;;;;5.57;2.85;;;15.60;99.90;;;;;;5003446;28;20041;-75
2023/07/14 02:55:26;;;;;;;4.22;2.83;;;15.60;99.90;;;;;;5008059;28;20045;-75
2023/07/14 02:58:12;;;;;;;6.18;3.03;;;15.60;99.90;;;;;;4999584;28;20559;-74
2023/07/14 03:00:58;;;;;;;8.38;3.00;;;15.50;99.90;;;;;;5010236;28;20124;-75
2023/07/14 03:03:45;;;;;;;5.25;2.90;;;15.50;99.90;;;;;;5019401;28;20124;-75
2023/07/14 03:06:31;;;;;;;5.03;3.03;;;15.50;99.90;;;;;;5006566;28;20038;-74
2023/07/14 03:09:17;;;;;;;6.78;3.35;;;15.50;99.90;;;;;;4984286;28;20472;-74
2023/07/14 03:12:03;;;;;;;4.70;3.47;;;15.40;99.90;;;;;;4985619;28;20041;-74
2023/07/14 03:14:50;;;;;;;5.88;3.70;;;15.30;99.90;;;;;;5005551;28;20100;-74
2023/07/14 03:17:36;;;;;;;5.85;3.17;;;15.30;99.90;;;;;;4987396;28;20034;-74
2023/07/14 03:20:22;;;;;;;6.70;3.17;;;15.30;99.90;;;;;;5002171;28;20037;-74
2023/07/14 03:23:08;;;;;;;7.00;3.00;;;15.30;99.90;;;;;;4979702;28;20129;-74
2023/07/14 03:25:55;;;;;;;7.22;3.22;;;15.30;99.90;;;;;;4982615;28;20050;-75
2023/07/14 03:28:41;;;;;;;6.82;3.10;;;15.30;99.90;;;;;;4990120;28;20336;-74
2023/07/14 03:31:27;;;;;;;6.28;3.40;;;15.30;99.90;;;;;;5009166;28;20060;-75
2023/07/14 03:34:13;;;;;;;6.78;3.22;;;15.30;99.90;;;;;;4985144;28;20149;-74
2023/07/14 03:36:59;;;;;;;7.03;3.40;;;15.20;99.90;;;;;;4993555;28;20179;-74
2023/07/14 03:39:45;;;;;;;8.13;3.20;;;15.30;99.90;;;;;;5009233;28;20106;-74
2023/07/14 03:42:32;;;;;;;5.70;2.80;;;15.30;99.90;;;;;;4994368;28;20072;-74
2023/07/14 03:45:18;;;;;;;5.82;3.08;;;15.20;99.90;;;;;;4999179;28;20157;-75
2023/07/14 03:48:04;;;;;;;5.30;3.33;;;15.20;99.90;;;;;;5005001;28;20077;-74
2023/07/14 03:50:50;;;;;;;7.45;3.30;;;15.20;99.90;;;;;;4997492;28;20038;-74
2023/07/14 03:53:37;;;;;;;5.30;2.85;;;15.20;99.90;;;;;;4992289;28;20033;-74
2023/07/14 03:56:24;;;;;;;4.95;2.80;;;15.20;99.90;;;;;;4981132;28;20502;-75
2023/07/14 03:59:11;;;;;;;4.30;2.78;;;15.20;99.90;;;;;;5001325;28;20041;-74
2023/07/14 04:01:57;;;;;;;4.68;3.17;;;15.10;99.90;;;;;;4999861;28;20128;-74
2023/07/14 04:04:43;;;;;;;6.35;2.90;;;15.10;99.90;;;;;;5000301;28;20053;-74
2023/07/14 04:07:29;;;;;;;5.85;3.38;;;15.20;99.90;;;;;;5003189;28;20033;-74
2023/07/14 04:10:15;;;;;;;6.90;3.30;;;15.10;99.90;;;;;;4992703;28;20045;-74
2023/07/14 04:13:02;;;;;;;5.90;3.10;;;15.10;99.90;;;;;;4986259;28;20045;-75
2023/07/14 04:15:48;;;;;;;7.18;3.03;;;15.20;99.90;;;;;;4985497;28;20053;-74
2023/07/14 04:18:35;;;;;;;5.65;3.63;;;15.20;99.90;;;;;;4984929;28;20103;-75
2023/07/14 04:21:24;;;;;;;5.53;2.83;;;15.20;99.90;;;;;;4991110;28;20041;-74
2023/07/14 04:24:10;;;;;;;8.80;3.38;;;15.10;99.90;;;;;;4985628;28;20056;-75
2023/07/14 04:26:56;;;;;;;5.28;3.40;;;15.10;99.90;;;;;;5025844;28;20064;-74
2023/07/14 04:29:42;;;;;;;5.18;3.00;;;15.10;99.90;;;;;;4976890;28;20105;-74
2023/07/14 04:32:28;;;;;;;4.88;2.95;;;15.10;99.90;;;;;;4992469;28;20498;-74
2023/07/14 04:35:14;;;;;;;8.05;3.15;;;15.10;99.90;;;;;;5011993;28;20048;-74
2023/07/14 04:38:00;;;;;;;7.32;2.92;;;15.10;99.90;;;;;;5003681;28;20037;-74
2023/07/14 04:40:47;;;;;;;6.68;3.38;;;15.10;99.90;;;;;;5003209;28;20382;-75
2023/07/14 04:43:33;;;;;;;5.22;2.95;;;15.10;99.90;;;;;;4994772;28;20091;-74
2023/07/14 04:46:19;;;;;;;4.90;2.90;;;15.10;99.90;;;;;;5018541;28;20073;-74
2023/07/14 04:49:06;;;;;;;7.85;2.80;;;15.10;99.90;;;;;;4987410;28;20099;-75
2023/07/14 04:51:52;;;;;;;7.22;3.45;;;15.20;99.90;;;;;;4996625;28;20129;-74
2023/07/14 04:54:38;;;;;;;7.32;3.25;;;15.20;99.90;;;;;;4996283;28;20133;-75
2023/07/14 04:57:24;;;;;;;7.45;3.53;;;15.30;99.90;;;;;;4991510;28;20038;-74
2023/07/14 05:00:11;;;;;;;6.35;3.47;;;15.30;99.90;;;;;;4997428;28;20038;-75
2023/07/14 05:02:57;;;;;;;11.00;6.65;;;15.30;99.90;;;;;;4998612;28;20049;-74
2023/07/14 05:05:44;;;;;;;9.52;4.20;;;15.30;99.90;;;;;;4990989;28;20374;-75
2023/07/14 05:08:31;;;;;;;8.45;3.42;;;15.40;99.90;;;;;;4998782;28;20101;-75
2023/07/14 05:11:17;;;;;;;5.43;3.00;;;15.40;99.90;;;;;;5004248;28;20062;-75
2023/07/14 05:14:04;;;;;;;6.63;3.60;;;15.40;99.90;;;;;;4991012;28;20456;-74
2023/07/14 05:16:50;;;;;;;5.63;3.25;;;15.30;99.90;;;;;;5013137;28;20117;-74
2023/07/14 05:19:36;;;;;;;4.85;2.80;;;15.40;99.90;;;;;;4991361;28;20162;-75
2023/07/14 05:22:22;;;;;;;6.65;3.08;;;15.40;99.90;;;;;;4989020;28;20078;-74
2023/07/14 05:25:08;;;;;;;7.82;3.08;;;15.50;99.90;;;;;;5001736;28;20052;-75
2023/07/14 05:27:57;;;;;;;5.15;3.05;;;15.50;99.90;;;;;;4999652;28;20038;-74
2023/07/14 05:30:43;;;;;;;5.57;2.60;;;15.50;99.90;;;;;;5007671;28;20041;-75
2023/07/14 05:33:29;;;;;;;6.03;3.10;;;15.50;99.90;;;;;;5009017;28;20091;-75
2023/07/14 05:36:15;;;;;;;6.50;3.08;;;15.60;99.90;;;;;;4984396;28;20107;-74
2023/07/14 05:39:01;;;;;;;4.82;3.30;;;15.60;99.90;;;;;;5008585;28;20389;-74
2023/07/14 05:41:47;;;;;;;6.85;3.30;;;15.60;99.90;;;;;;5002627;28;20046;-74
2023/07/14 05:44:33;;;;;;;7.53;3.28;;;15.60;99.90;;;;;;5003751;28;20052;-75
2023/07/14 05:47:23;;;;;;;6.72;3.05;;;15.70;99.90;;;;;;5003125;28;20045;-75
2023/07/14 05:50:09;;;;;;;8.40;3.22;;;15.70;99.90;;;;;;4999382;28;20057;-74
2023/07/14 05:52:55;;;;;;;6.75;3.30;;;15.80;99.90;;;;;;5001803;28;20069;-75
2023/07/14 05:55:41;;;;;;;6.45;2.90;;;15.90;99.90;;;;;;5003869;28;20127;-75
2023/07/14 05:58:29;;;;;;;7.72;2.83;;;15.90;99.90;;;;;;4985814;28;20120;-75
2023/07/14 06:01:15;;;;;;;7.22;3.20;;;16.00;99.90;;;;;;5002303;28;20089;-75
2023/07/14 06:04:01;;;;;;;6.65;3.08;;;16.10;99.90;;;;;;4979364;28;20053;-75
2023/07/14 06:06:47;;;;;;;7.40;3.25;;;16.20;99.90;;;;;;5009936;28;20138;-74
2023/07/14 06:09:34;;;;;;;7.78;3.78;;;16.20;99.90;;;;;;4992452;28;20057;-75
2023/07/14 06:12:20;;;;;;;5.90;3.33;;;16.30;99.90;;;;;;4999555;28;20509;-74
2023/07/14 06:15:06;;;;;;;7.25;2.83;;;16.30;99.90;;;;;;5010861;28;20049;-75
2023/07/14 06:17:52;;;;;;;5.22;3.10;;;16.40;99.90;;;;;;5010173;28;20033;-75
2023/07/14 06:20:38;;;;;;;5.50;3.10;;;16.40;99.90;;;;;;4986788;28;20135;-74
2023/07/14 06:23:26;;;;;;;6.15;3.75;;;16.50;99.90;;;;;;5000086;28;20053;-74
2023/07/14 06:26:12;;;;;;;7.35;3.75;;;16.50;99.90;;;;;;4999702;28;20617;-74
2023/07/14 06:28:58;;;;;;;5.57;3.50;;;16.60;99.90;;;;;;5001163;28;20096;-75
2023/07/14 06:31:44;;;;;;;5.65;3.13;;;16.70;99.90;;;;;;5016719;28;20084;-77
2023/07/14 06:34:30;;;;;;;7.55;4.13;;;16.70;99.90;;;;;;4998905;28;20104;-77
2023/07/14 06:37:16;;;;;;;6.38;3.17;;;16.80;99.90;;;;;;4999486;28;20104;-77
2023/07/14 06:40:04;;;;;;;6.50;3.78;;;16.90;99.90;;;;;;5025899;28;20068;-77
2023/07/14 06:42:50;;;;;;;7.05;3.35;;;17.00;99.90;;;;;;5002979;28;20033;-77
2023/07/14 06:45:36;;;;;;;8.75;3.72;;;17.10;99.90;;;;;;4989301;28;20121;-77
2023/07/14 06:48:23;;;;;;;6.40;3.03;;;17.20;99.90;;;;;;4993747;28;20106;-77
2023/07/14 06:51:09;;;;;;;8.95;3.40;;;17.30;99.90;;;;;;5001487;28;20041;-77
2023/07/14 06:53:55;;;;;;;6.53;3.65;;;17.30;99.90;;;;;;5003036;28;20061;-78
2023/07/14 06:56:42;;;;;;;6.47;3.50;;;17.40;99.90;;;;;;5003134;28;20145;-77
2023/07/14 06:59:28;;;;;;;7.85;3.58;;;17.40;99.90;;;;;;4988564;28;20034;-77
2023/07/14 07:02:14;;;;;;;9.30;4.03;;;17.50;99.90;;;;;;4981889;28;20050;-78
2023/07/14 07:05:00;;;;;;;10.93;3.60;;;17.60;99.90;;;;;;5007067;28;20084;-77
2023/07/14 07:07:46;;;;;;;7.95;4.03;;;17.60;99.90;;;;;;5010011;28;20046;-77
2023/07/14 07:10:33;;;;;;;7.75;3.28;;;17.70;99.90;;;;;;4989438;28;20050;-77
2023/07/14 07:13:19;;;;;;;6.88;3.45;;;17.90;99.90;;;;;;4997095;28;20042;-78
2023/07/14 07:16:05;;;;;;;9.05;3.92;;;18.00;99.90;;;;;;5003349;28;20108;-78
2023/07/14 07:18:51;;;;;;;9.82;3.55;;;18.00;99.90;;;;;;4990749;28;20038;-79
2023/07/14 07:21:37;;;;;;;11.00;3.72;;;18.10;99.90;;;;;;5001627;28;20045;-77
2023/07/14 07:24:23;;;;;;;10.32;3.78;;;18.20;99.90;;;;;;4991776;28;20039;-78
2023/07/14 07:27:09;;;;;;;7.35;4.00;;;18.30;99.90;;;;;;5006373;28;20038;-79
2023/07/14 07:29:55;;;;;;;9.30;3.83;;;18.40;99.90;;;;;;5005741;28;20034;-77
2023/07/14 07:32:42;;;;;;;9.27;3.83;;;18.50;99.90;;;;;;4964097;28;20058;-77
2023/07/14 07:35:28;;;;;;;8.60;3.85;;;18.60;99.90;;;;;;4984648;28;20102;-79
2023/07/14 07:38:14;;;;;;;11.38;4.20;;;18.70;99.90;;;;;;5013923;28;20413;-78
2023/07/14 07:41:00;;;;;;;10.10;4.05;;;18.70;99.90;;;;;;4987954;28;20526;-78
2023/07/14 07:43:46;;;;;;;9.20;4.57;;;18.90;99.90;;;;;;5001001;28;20084;-78
2023/07/14 07:46:33;;;;;;;8.65;4.47;;;19.00;99.90;;;;;;4987655;28;20042;-78
2023/07/14 07:49:20;;;;;;;7.65;3.78;;;19.10;99.90;;;;;;5000594;28;20046;-78
2023/07/14 07:52:06;;;;;;;8.38;3.70;;;19.10;99.90;;;;;;5004995;28;20073;-79
2023/07/14 07:54:53;;;;;;;8.82;3.72;;;19.10;99.90;;;;;;5000336;28;20042;-78
2023/07/14 07:57:40;;;;;;;8.95;4.15;;;19.10;99.90;;;;;;5001897;28;20046;-77
2023/07/14 08:00:26;;;;;;;7.00;3.80;;;19.10;99.90;;;;;;4968391;28;20740;-77
2023/07/14 08:03:12;;;;;;;11.93;4.03;;;19.10;99.90;;;;;;4992149;28;20054;-79
2023/07/14 08:06:02;;;;;;;11.27;4.22;;;19.20;99.90;;;;;;5003610;28;20056;-77
2023/07/14 08:08:48;;;;;;;8.45;4.30;;;19.40;99.90;;;;;;4993999;28;20041;-78
2023/07/14 08:11:34;;;;;;;8.77;4.20;;;19.50;99.90;;;;;;4992338;28;20038;-79
2023/07/14 08:14:20;;;;;;;7.90;4.22;;;19.50;99.90;;;;;;4999642;28;20076;-78
2023/07/14 08:17:06;;;;;;;8.85;3.90;;;19.50;99.90;;;;;;4989119;28;20096;-78
2023/07/14 08:19:53;;;;;;;8.95;4.43;;;19.60;99.90;;;;;;5006233;28;20366;-78
2023/07/14 08:22:40;;;;;;;7.55;3.45;;;19.70;99.90;;;;;;5005432;28;20336;-78
2023/07/14 08:25:27;;;;;;;10.35;4.10;;;19.80;99.90;;;;;;4997524;28;20403;-78
2023/07/14 08:28:14;;;;;;;10.73;4.20;;;20.00;99.90;;;;;;4992361;28;20050;-78
2023/07/14 08:31:09;;;;;;;10.13;3.90;;;20.10;99.70;;;;;;4984394;28;20038;-78
2023/07/14 08:33:56;;;;;;;7.32;3.63;;;20.10;98.50;;;;;;4987969;28;20038;-78
2023/07/14 08:36:42;;;;;;;12.52;4.07;;;20.00;99.60;;;;;;5000317;28;20057;-78
2023/07/14 08:39:28;;;;;;;8.45;3.42;;;20.10;99.90;;;;;;5003485;28;20033;-77
2023/07/14 08:42:34;;;;;;;5.82;3.42;;;20.20;99.10;;;;;;5000025;28;20104;-79
2023/07/14 08:45:59;;;;;;;8.25;3.15;;;20.20;99.00;;;;;;5000679;28;20040;-78
2023/07/14 08:49:00;;;;;;;7.55;2.95;;;20.30;98.60;;;;;;4979323;28;20074;-77
2023/07/14 08:52:00;;;;;;;7.82;2.90;;;20.40;98.00;;;;;;5000755;28;20096;-76
2023/07/14 08:55:13;;;;;;;6.25;2.85;;;20.30;97.90;;;;;;4995884;28;20042;-79
2023/07/14 08:58:16;;;;;;;8.73;2.78;;;20.50;97.40;;;;;;4987349;28;20100;-78
2023/07/14 09:01:08;;;;;;;4.78;2.30;;;20.50;98.20;;;;;;5004095;28;20052;-80
2023/07/14 09:04:03;;;;;;;6.32;2.42;;;20.70;97.20;;;;;;5003681;28;20040;-80
2023/07/14 09:06:49;;;;;;;6.18;2.15;;;20.70;97.30;;;;;;4982551;28;20042;-79
2023/07/14 09:09:38;;;;;;;4.10;2.25;;;20.70;97.50;;;;;;5003172;28;20046;-79
2023/07/14 09:12:28;;;;;;;5.32;2.58;;;20.70;96.30;;;;;;5011058;28;20037;-79
2023/07/14 09:15:22;;;;;;;5.72;2.72;;;20.70;96.60;;;;;;4997250;28;20041;-80
2023/07/14 09:18:28;;;;;;;6.07;2.35;;;20.80;96.10;;;;;;5020185;28;20029;-80
2023/07/14 09:21:39;;;;;;;5.72;2.10;;;20.90;96.00;;;;;;5013900;28;20379;-80
2023/07/14 09:24:56;;;;;;;4.22;2.22;;;20.90;96.20;;;;;;5012371;28;20573;-80
2023/07/14 09:27:42;;;;;;;4.68;3.00;;;20.90;96.60;;;;;;5002628;28;20038;-80
2023/07/14 09:30:28;;;;;;;4.15;2.13;;;21.00;96.80;;;;;;5001877;28;20133;-80
2023/07/14 09:33:16;;;;;;;4.10;2.53;;;21.20;95.90;;;;;;5003785;28;20038;-80
2023/07/14 09:36:02;;;;;;;4.40;2.40;;;21.20;96.20;;;;;;4996022;28;20049;-79
2023/07/14 09:38:50;;;;;;;4.78;2.03;;;21.40;94.40;;;;;;5002275;28;20037;-80
2023/07/14 09:41:36;;;;;;;3.80;2.08;;;21.50;95.10;;;;;;5003767;28;20100;-80
2023/07/14 09:44:22;;;;;;;6.57;2.40;;;21.50;93.50;;;;;;5002372;28;20152;-80
2023/07/14 09:47:08;;;;;;;4.40;2.20;;;21.50;93.00;;;;;;4992325;28;20671;-79
2023/07/14 09:49:57;;;;;;;5.45;2.25;;;21.50;93.30;;;;;;5001623;28;20374;-80
2023/07/14 09:53:00;;;;;;;4.25;2.30;;;21.50;93.70;;;;;;5011288;28;20100;-80
2023/07/14 09:55:49;;;;;;;4.28;1.98;;;21.50;93.40;;;;;;5007381;28;20042;-81
2023/07/14 09:58:35;;;;;;;6.03;2.28;;;21.70;94.50;;;;;;5015006;28;20096;-81
2023/07/14 10:01:21;;;;;;;3.90;1.90;;;22.00;93.60;;;;;;4995802;28;20128;-80
2023/07/14 10:04:12;;;;;;;4.68;2.00;;;22.00;93.30;;;;;;4987779;28;20042;-80
2023/07/14 10:07:21;;;;;;;8.95;2.78;;;22.00;93.50;;;;;;4998135;28;20566;-80
2023/07/14 10:10:09;;;;;;;7.18;2.35;;;22.10;92.10;;;;;;4996517;28;20375;-79
2023/07/14 10:12:55;;;;;;;3.28;1.92;;;22.10;91.40;;;;;;5001954;28;20038;-80
2023/07/14 10:15:42;;;;;;;5.05;2.22;;;22.20;91.50;;;;;;4994318;28;20038;-79
2023/07/14 10:18:28;;;;;;;4.53;2.17;;;22.20;92.00;;;;;;4998484;28;20053;-80
2023/07/14 10:21:15;;;;;;;5.25;2.25;;;22.20;92.70;;;;;;5001593;28;20041;-79
2023/07/14 10:24:06;;;;;;;5.03;2.08;;;22.30;93.50;;;;;;5008484;28;20085;-81
2023/07/14 10:26:55;;;;;;;3.35;2.10;;;22.50;92.70;;;;;;4996746;28;20039;-80
2023/07/14 10:30:09;;;;;;;3.35;1.75;;;22.60;92.40;;;;;;5009878;28;20094;-81
2023/07/14 10:32:55;;;;;;;5.07;2.25;;;22.80;92.50;;;;;;5003956;28;20034;-80
2023/07/14 10:35:41;;;;;;;4.18;2.20;;;22.90;90.70;;;;;;4984779;28;20065;-81
2023/07/14 10:38:33;;;;;;;4.78;2.10;;;22.70;90.20;;;;;;4980948;28;20042;-80
2023/07/14 10:41:19;;;;;;;4.45;2.00;;;22.90;90.50;;;;;;4998147;28;20046;-80
2023/07/14 10:44:25;;;;;;;5.85;2.30;;;23.00;90.20;;;;;;5006848;28;20052;-80
2023/07/14 10:47:22;;;;;;;5.60;2.30;;;23.20;90.20;;;;;;4972430;28;20117;-79
2023/07/14 10:50:14;;;;;;;4.68;2.00;;;23.10;87.00;;;;;;4997005;28;20046;-80
2023/07/14 10:53:28;;;;;;;5.00;2.30;;;23.10;87.20;;;;;;5001941;28;20123;-80
2023/07/14 10:56:32;;;;;;;7.15;2.40;;;23.10;87.20;;;;;;4991236;28;20034;-79
2023/07/14 10:59:34;;;;;;;5.57;2.40;;;23.20;87.80;;;;;;4994170;28;20042;-76
2023/07/14 11:02:22;;;;;;;3.65;2.08;;;23.20;88.70;;;;;;4993017;28;20065;-77
2023/07/14 11:05:14;;;;;;;;;;;23.40;87.70;;;;;;4988891;28;20054;-76
2023/07/14 11:08:00;;;;;;;5.95;2.10;;;23.60;89.40;;;;;;4978470;28;19913;-76
2023/07/14 11:11:24;;;;;;;4.28;2.25;;;23.70;87.70;;;;;;4995664;28;20049;-75
2023/07/14 11:14:25;;;;;;;6.13;2.40;;;23.60;87.50;;;;;;4980863;28;20123;-75
2023/07/14 11:17:39;;;;;;;5.75;2.50;;;23.40;88.60;;;;;;4994580;28;20121;-75
2023/07/14 11:20:41;;;;;;;5.95;2.40;;;23.50;86.90;;;;;;4985310;28;20097;-75
2023/07/14 11:23:36;;;;;;;4.18;2.10;;;23.50;84.90;;;;;;4999769;28;20042;-75
2023/07/14 11:26:30;;;;;;;5.30;2.20;;;23.40;86.20;;;;;;5010264;28;20042;-76
2023/07/14 11:29:19;;;;;;;3.45;2.03;;;23.40;86.50;;;;;;4974913;28;20039;-76
2023/07/14 11:32:14;;;;;;;3.63;1.88;;;23.60;88.20;;;;;;4990102;28;20050;-76
2023/07/14 11:35:27;;;;;;;7.07;2.00;;;23.60;88.50;;;;;;4996703;28;20042;-75
2023/07/14 11:38:19;;;;;;;4.18;1.95;;;23.80;88.00;;;;;;4997898;28;20105;-76
2023/07/14 11:41:05;;;;;;;7.20;2.40;;;23.90;90.00;;;;;;4980068;28;20050;-75
2023/07/14 11:43:51;;;;;;;3.78;2.13;;;23.90;86.50;;;;;;4996747;28;20038;-75
2023/07/14 11:46:37;;;;;;;5.68;2.40;;;23.80;87.90;;;;;;5003202;28;20050;-75
2023/07/14 11:49:33;;;;;;;4.35;2.20;;;23.80;85.30;;;;;;5000018;28;20069;-75
2023/07/14 11:52:25;;;;;;;5.03;2.05;;;23.80;86.60;;;;;;4991402;28;20065;-75
2023/07/14 11:55:31;;;;;;;3.33;2.10;;;23.70;85.40;;;;;;4988789;28;20491;-76
2023/07/14 11:58:28;;;;;;;5.32;2.30;;;23.70;85.10;;;;;;4989229;28;20241;-75
2023/07/14 12:01:17;;;;;;;3.90;2.13;;;23.90;85.40;;;;;;4998182;28;20063;-75
2023/07/14 12:04:35;;;;;;;5.40;2.40;;;23.80;83.70;;;;;;4981527;28;20068;-75
2023/07/14 12:07:22;;;;;;;4.80;2.50;;;23.70;83.80;;;;;;4977134;28;20129;-75
2023/07/14 12:10:15;;;;;;;3.92;2.30;;;23.60;83.30;;;;;;5000970;28;20052;-75
2023/07/14 12:13:20;;;;;;;5.40;2.30;;;23.60;83.80;;;;;;4992397;28;20080;-75
2023/07/14 12:16:28;;;;;;;4.90;2.33;;;23.60;83.30;;;;;;5011302;28;20045;-75
2023/07/14 12:19:26;;;;;;;4.22;2.40;;;23.60;84.70;;;;;;4997046;28;20545;-76
2023/07/14 12:22:12;;;;;;;5.93;2.35;;;23.90;85.40;;;;;;4978482;28;20140;-75
2023/07/14 12:24:58;;;;;;;4.10;2.33;;;24.10;85.50;;;;;;4986084;28;20798;-76
2023/07/14 12:27:49;;;;;;;5.32;2.30;;;24.30;86.10;;;;;;4999496;28;20545;-75
2023/07/14 12:30:36;;;;;;;3.65;2.33;;;24.40;84.20;;;;;;4995511;28;20053;-75
2023/07/14 12:33:23;;;;;;;5.05;2.58;;;24.60;85.60;;;;;;5002971;28;20033;-75
2023/07/14 12:36:18;;;;;;;3.22;2.10;;;24.80;83.10;;;;;;4996219;28;20425;-79
2023/07/14 12:39:04;;;;;;;3.33;2.28;;;25.00;81.40;;;;;;5007719;28;20045;-80
2023/07/14 12:41:51;;;;;;;7.88;3.03;;;25.10;79.00;;;;;;5006514;28;20364;-79
2023/07/14 12:44:37;;;;;;;5.10;2.60;;;25.30;77.50;;;;;;4995038;28;20616;-79
2023/07/14 12:47:23;;;;;;;4.55;2.50;;;25.20;77.00;;;;;;4999873;28;20544;-80
2023/07/14 12:50:14;;;;;;;4.13;2.40;;;24.90;76.80;;;;;;4996107;28;20478;-80
2023/07/14 12:53:00;;;;;;;6.90;3.13;;;24.90;76.90;;;;;;4994060;28;20046;-79
2023/07/14 12:55:46;;;;;;;6.13;2.70;;;25.00;77.60;;;;;;4972949;28;20052;-79
2023/07/14 12:58:32;;;;;;;4.97;2.30;;;25.00;76.80;;;;;;4994626;28;20060;-79
2023/07/14 13:01:18;;;;;;;7.97;2.63;;;25.00;80.90;;;;;;4992417;28;20069;-80
2023/07/14 13:04:04;;;;;;;3.97;2.20;;;24.80;78.70;;;;;;4997430;28;20137;-79
2023/07/14 13:06:54;;;;;;;3.47;2.38;;;24.80;80.10;;;;;;5002738;28;20042;-78
2023/07/14 13:09:40;;;;;;;7.18;3.85;;;24.90;81.70;;;;;;5009795;28;20180;-79
2023/07/14 13:12:26;;;;;;;4.50;2.75;;;24.90;79.10;;;;;;5013000;28;20052;-79
2023/07/14 13:15:16;;;;;;;5.65;2.40;;;25.10;81.40;;;;;;5013455;28;20049;-79
2023/07/14 13:18:12;;;;;;;4.28;2.70;;;25.30;79.60;;;;;;4995324;28;20132;-80
2023/07/14 13:21:00;;;;;;;4.22;2.60;;;25.40;75.40;;;;;;5005574;28;20104;-79
2023/07/14 13:23:46;;;;;;;5.63;2.65;;;25.30;75.40;;;;;;4992845;28;20366;-79
2023/07/14 13:26:51;;;;;;;5.53;2.72;;;25.30;74.00;;;;;;5002787;28;20045;-79
2023/07/14 13:29:39;;;;;;;5.53;2.97;;;25.30;76.30;;;;;;5015581;28;20041;-79
2023/07/14 13:32:25;;;;;;;4.03;2.92;;;25.40;77.40;;;;;;4993343;28;20068;-79
2023/07/14 13:35:15;;;;;;;6.63;3.08;;;25.70;75.00;;;;;;5002535;28;20584;-79
2023/07/14 13:38:07;;;;;;;7.32;2.75;;;25.60;71.70;;;;;;5000953;28;20026;-79
2023/07/14 13:40:53;;;;;;;4.68;3.08;;;25.50;70.60;;;;;;5007097;28;20045;-79
2023/07/14 13:43:39;;;;;;;5.13;3.42;;;25.40;71.70;;;;;;5010785;28;20042;-78
2023/07/14 13:46:25;;;;;;;4.85;2.55;;;25.40;71.90;;;;;;4991018;28;20084;-78
2023/07/14 13:49:11;;;;;;;4.85;2.90;;;25.60;71.60;;;;;;5003998;28;20537;-78
2023/07/14 13:51:57;;;;;;;5.30;3.00;;;25.50;71.50;;;;;;4991443;28;20073;-78
2023/07/14 13:54:47;;;;;;;3.88;2.80;;;25.50;70.40;;;;;;5006558;28;20034;-78
2023/07/14 13:57:33;;;;;;;6.93;3.03;;;25.60;72.20;;;;;;4975441;28;20041;-78
2023/07/14 14:00:22;;;;;;;6.60;3.17;;;25.60;71.30;;;;;;4999932;28;20034;-79
2023/07/14 14:03:08;;;;;;;4.53;2.85;;;25.70;72.60;;;;;;5004621;28;20085;-78
2023/07/14 14:05:54;;;;;;;5.00;2.83;;;25.70;70.90;;;;;;5002570;28;20040;-76
2023/07/14 14:08:40;;;;;;;6.47;3.05;;;25.60;71.70;;;;;;5001543;28;20521;-78
2023/07/14 14:11:26;;;;;;;6.60;3.08;;;25.60;72.50;;;;;;4999382;28;20727;-77
2023/07/14 14:14:12;;;;;;;4.25;2.88;;;25.70;72.10;;;;;;5011639;28;20412;-78
2023/07/14 14:16:59;;;;;;;6.40;3.38;;;25.60;70.50;;;;;;5014345;28;20065;-78
2023/07/14 14:19:45;;;;;;;4.30;3.20;;;25.40;70.60;;;;;;5000915;28;20042;-78
2023/07/14 14:22:32;;;;;;;5.93;3.30;;;25.40;70.10;;;;;;4990853;28;20045;-78
2023/07/14 14:25:19;;;;;;;3.90;2.83;;;25.40;72.20;;;;;;5005178;28;20058;-78
2023/07/14 14:28:06;;;;;;;4.97;3.22;;;25.50;71.40;;;;;;4984501;28;20042;-78
2023/07/14 14:30:56;;;;;;;7.43;3.08;;;25.50;71.50;;;;;;5000165;28;20038;-78
2023/07/14 14:33:43;;;;;;;4.68;2.58;;;25.40;71.50;;;;;;4987976;28;20038;-78
2023/07/14 14:36:31;;;;;;;4.55;3.05;;;25.50;72.80;;;;;;4996467;28;20038;-78
2023/07/14 14:39:19;;;;;;;6.10;3.05;;;25.70;71.70;;;;;;5006402;28;20042;-78
2023/07/14 14:42:13;;;;;;;7.22;3.28;;;25.80;71.50;;;;;;4993428;28;20042;-78